createdAt,value
2023-03-13T00:00:24.790Z,5.68
2023-03-13T00:00:58.170Z,5.90
2023-03-13T00:01:34.550Z,4.93
2023-03-13T00:02:06.045Z,5.53
2023-03-13T00:02:37.633Z,6.53
2023-03-13T00:03:09.056Z,5.95
2023-03-13T00:03:40.608Z,5.40
2023-03-13T00:04:12.125Z,6.28
2023-03-13T00:04:43.490Z,6.13
2023-03-13T00:05:15.003Z,5.85
2023-03-13T00:05:46.522Z,6.50
2023-03-13T00:06:18.488Z,4.88
2023-03-13T00:06:49.895Z,4.72
2023-03-13T00:07:21.280Z,6.20
2023-03-13T00:07:52.721Z,5.68
2023-03-13T00:08:25.748Z,5.65
2023-03-13T00:08:57.105Z,6.73
2023-03-13T00:09:28.575Z,4.82
2023-03-13T00:09:59.977Z,4.75
2023-03-13T00:10:31.475Z,5.85
2023-03-13T00:11:11.386Z,5.22
2023-03-13T00:11:44.439Z,5.25
2023-03-13T00:12:15.859Z,5.82
2023-03-13T00:12:47.252Z,7.60
2023-03-13T00:13:18.583Z,5.28
2023-03-13T00:13:54.528Z,5.30
2023-03-13T00:14:25.878Z,4.80
2023-03-13T00:14:57.253Z,4.88
2023-03-13T00:15:28.698Z,4.95
2023-03-13T00:16:05.808Z,5.75
2023-03-13T00:16:39.478Z,4.50
2023-03-13T00:17:10.906Z,4.93
2023-03-13T00:17:42.394Z,5.18
2023-03-13T00:18:13.824Z,5.65
2023-03-13T00:18:50.193Z,4.72
2023-03-13T00:19:21.558Z,5.15
2023-03-13T00:19:53.046Z,4.50
2023-03-13T00:20:24.445Z,4.95
2023-03-13T00:21:03.273Z,3.67
2023-03-13T00:21:35.101Z,6.38
2023-03-13T00:22:06.542Z,5.72
2023-03-13T00:22:38.101Z,5.50
2023-03-13T00:23:09.459Z,5.32
2023-03-13T00:23:41.124Z,4.68
2023-03-13T00:24:12.740Z,5.28
2023-03-13T00:24:46.180Z,4.65
2023-03-13T00:25:17.650Z,5.70
2023-03-13T00:25:49.010Z,3.85
2023-03-13T00:26:22.930Z,4.93
2023-03-13T00:26:55.665Z,5.07
2023-03-13T00:27:27.105Z,4.68
2023-03-13T00:27:58.552Z,5.00
2023-03-13T00:28:32.731Z,5.32
2023-03-13T00:29:04.455Z,4.40
2023-03-13T00:29:36.028Z,4.70
2023-03-13T00:30:07.919Z,4.80
2023-03-13T00:30:39.356Z,4.60
2023-03-13T00:31:13.916Z,4.85
2023-03-13T00:31:45.317Z,4.57
2023-03-13T00:32:16.784Z,4.75
2023-03-13T00:32:48.741Z,5.63
2023-03-13T00:33:20.162Z,3.83
2023-03-13T00:33:54.618Z,5.50
2023-03-13T00:34:27.457Z,5.20
2023-03-13T00:34:58.823Z,6.05
2023-03-13T00:35:30.359Z,5.50
2023-03-13T00:36:04.292Z,4.70
2023-03-13T00:36:36.301Z,4.32
2023-03-13T00:37:07.756Z,4.97
2023-03-13T00:37:39.315Z,4.57
2023-03-13T00:38:10.661Z,4.97
2023-03-13T00:38:42.902Z,4.60
2023-03-13T00:39:14.238Z,6.15
2023-03-13T00:39:45.631Z,5.07
2023-03-13T00:40:17.049Z,4.35
2023-03-13T00:40:48.383Z,4.60
2023-03-13T00:41:22.600Z,5.00
2023-03-13T00:41:53.961Z,4.85
2023-03-13T00:42:25.315Z,4.82
2023-03-13T00:42:56.832Z,5.07
2023-03-13T00:43:28.653Z,4.60
2023-03-13T00:44:00.426Z,4.68
2023-03-13T00:44:31.907Z,5.28
2023-03-13T00:45:03.966Z,4.47
2023-03-13T00:45:35.335Z,4.68
2023-03-13T00:46:07.454Z,4.20
2023-03-13T00:46:39.094Z,5.57
2023-03-13T00:47:10.438Z,4.53
2023-03-13T00:47:41.877Z,4.78
2023-03-13T00:48:13.291Z,4.88
2023-03-13T00:48:44.788Z,6.03
2023-03-13T00:49:16.181Z,6.00
2023-03-13T00:49:47.564Z,6.65
2023-03-13T00:50:18.968Z,5.07
2023-03-13T00:50:50.446Z,4.60
2023-03-13T00:51:27.012Z,4.93
2023-03-13T00:51:59.199Z,5.20
2023-03-13T00:52:30.573Z,5.57
2023-03-13T00:53:02.030Z,5.53
2023-03-13T00:53:34.066Z,5.03
2023-03-13T00:54:05.799Z,5.20
2023-03-13T00:54:37.191Z,4.40
2023-03-13T00:55:09.135Z,4.85
2023-03-13T00:55:57.737Z,4.63
2023-03-13T00:56:29.696Z,4.93
2023-03-13T00:57:01.092Z,5.15
2023-03-13T00:57:32.480Z,4.87
2023-03-13T00:58:03.863Z,5.18
2023-03-13T00:58:38.308Z,5.25
2023-03-13T00:59:09.800Z,4.53
2023-03-13T00:59:41.236Z,4.30
2023-03-13T01:00:13.139Z,4.68
2023-03-13T01:00:44.531Z,5.25
2023-03-13T01:01:45.082Z,5.13
2023-03-13T01:02:16.576Z,5.22
2023-03-13T01:02:48.218Z,5.00
2023-03-13T01:03:21.292Z,4.60
2023-03-13T01:03:55.339Z,5.75
2023-03-13T01:04:26.716Z,4.45
2023-03-13T01:05:00.083Z,5.07
2023-03-13T01:05:31.488Z,4.78
2023-03-13T01:06:04.582Z,5.25
2023-03-13T01:06:38.070Z,5.82
2023-03-13T01:07:09.514Z,5.57
2023-03-13T01:07:40.851Z,5.13
2023-03-13T01:08:12.265Z,4.72
2023-03-13T01:08:43.789Z,4.57
2023-03-13T01:09:16.557Z,4.50
2023-03-13T01:09:47.964Z,5.05
2023-03-13T01:10:19.353Z,4.60
2023-03-13T01:10:50.816Z,4.88
2023-03-13T01:11:25.306Z,4.65
2023-03-13T01:11:56.694Z,5.55
2023-03-13T01:12:28.082Z,6.20
2023-03-13T01:12:59.425Z,6.75
2023-03-13T01:13:33.017Z,4.38
2023-03-13T01:14:07.821Z,4.77
2023-03-13T01:14:39.216Z,5.68
2023-03-13T01:15:11.351Z,5.28
2023-03-13T01:15:42.729Z,5.72
2023-03-13T01:16:19.637Z,5.03
2023-03-13T01:16:51.143Z,4.75
2023-03-13T01:17:22.516Z,5.47
2023-03-13T01:17:53.917Z,5.85
2023-03-13T01:18:25.261Z,5.57
2023-03-13T01:19:00.277Z,5.60
2023-03-13T01:19:31.643Z,4.70
2023-03-13T01:20:03.385Z,4.93
2023-03-13T01:20:34.754Z,4.80
2023-03-13T01:21:07.051Z,6.15
2023-03-13T01:21:38.661Z,4.97
2023-03-13T01:22:12.582Z,5.20
2023-03-13T01:22:43.972Z,4.50
2023-03-13T01:23:15.774Z,5.70
2023-03-13T01:23:48.736Z,5.50
2023-03-13T01:24:20.213Z,4.03
2023-03-13T01:24:52.481Z,3.87
2023-03-13T01:25:24.020Z,4.85
2023-03-13T01:25:56.492Z,4.60
2023-03-13T01:26:28.218Z,5.15
2023-03-13T01:26:59.618Z,5.10
2023-03-13T01:27:31.531Z,4.78
2023-03-13T01:28:03.399Z,4.47
2023-03-13T01:28:36.192Z,5.60
2023-03-13T01:29:07.750Z,4.53
2023-03-13T01:29:39.232Z,4.75
2023-03-13T01:30:11.300Z,4.63
2023-03-13T01:30:42.705Z,4.50
2023-03-13T01:31:18.689Z,3.90
2023-03-13T01:31:50.100Z,4.95
2023-03-13T01:32:21.595Z,4.20
2023-03-13T01:32:53.073Z,4.45
2023-03-13T01:33:24.538Z,4.30
2023-03-13T01:33:58.685Z,4.53
2023-03-13T01:34:30.063Z,4.45
2023-03-13T01:35:01.411Z,4.53
2023-03-13T01:35:32.903Z,4.07
2023-03-13T01:36:04.834Z,4.30
2023-03-13T01:36:37.800Z,5.40
2023-03-13T01:37:09.201Z,4.38
2023-03-13T01:37:40.585Z,3.83
2023-03-13T01:38:12.131Z,5.45
2023-03-13T01:38:43.642Z,4.65
2023-03-13T01:39:15.034Z,4.55
2023-03-13T01:39:46.371Z,4.97
2023-03-13T01:40:17.845Z,5.20
2023-03-13T01:40:49.440Z,4.57
2023-03-13T01:41:22.351Z,5.18
2023-03-13T01:41:53.849Z,4.07
2023-03-13T01:42:25.248Z,4.13
2023-03-13T01:42:59.423Z,4.82
2023-03-13T01:43:33.049Z,5.45
2023-03-13T01:44:04.445Z,3.50
2023-03-13T01:44:56.810Z,4.47
2023-03-13T01:46:03.983Z,3.92
2023-03-13T01:46:35.569Z,4.05
2023-03-13T01:47:07.114Z,3.73
2023-03-13T01:47:38.561Z,3.90
2023-03-13T01:48:10.094Z,4.35
2023-03-13T01:48:47.456Z,3.20
2023-03-13T01:49:33.204Z,4.20
2023-03-13T01:50:04.851Z,4.78
2023-03-13T01:50:36.332Z,4.35
2023-03-13T01:51:12.845Z,5.53
2023-03-13T01:51:49.376Z,4.50
2023-03-13T01:52:25.850Z,3.65
2023-03-13T01:52:57.542Z,3.17
2023-03-13T01:53:33.332Z,3.47
2023-03-13T01:54:13.912Z,4.35
2023-03-13T01:55:09.063Z,4.10
2023-03-13T01:55:40.997Z,3.17
2023-03-13T01:56:18.575Z,3.80
2023-03-13T01:57:01.830Z,3.63
2023-03-13T01:57:37.638Z,3.70
2023-03-13T01:58:09.061Z,4.07
2023-03-13T01:58:40.792Z,3.72
2023-03-13T01:59:20.935Z,3.10
2023-03-13T02:00:16.169Z,3.83
2023-03-13T02:00:48.494Z,3.72
2023-03-13T02:01:20.466Z,4.22
2023-03-13T02:01:55.164Z,3.88
2023-03-13T02:02:27.373Z,4.22
2023-03-13T02:03:04.198Z,4.40
2023-03-13T02:03:36.955Z,4.32
2023-03-13T02:04:08.735Z,4.40
2023-03-13T02:04:46.106Z,4.40
2023-03-13T02:05:20.972Z,3.30
2023-03-13T02:05:52.536Z,3.85
2023-03-13T02:06:27.950Z,4.20
2023-03-13T02:07:04.490Z,3.97
2023-03-13T02:07:43.290Z,4.05
2023-03-13T02:08:21.239Z,4.03
2023-03-13T02:09:01.785Z,3.95
2023-03-13T02:09:34.569Z,3.95
2023-03-13T02:10:07.687Z,4.10
2023-03-13T02:10:46.503Z,4.05
2023-03-13T02:11:27.110Z,4.53
2023-03-13T02:12:07.706Z,4.45
2023-03-13T02:12:40.660Z,4.35
2023-03-13T02:13:15.162Z,4.40
2023-03-13T02:13:48.629Z,4.43
2023-03-13T02:14:23.456Z,3.70
2023-03-13T02:14:57.580Z,4.47
2023-03-13T02:15:31.322Z,4.75
2023-03-13T02:16:03.174Z,4.88
2023-03-13T02:16:35.433Z,4.18
2023-03-13T02:17:07.457Z,5.50
2023-03-13T02:17:40.494Z,4.20
2023-03-13T02:18:12.084Z,4.38
2023-03-13T02:18:44.331Z,5.20
2023-03-13T02:19:38.244Z,4.63
2023-03-13T02:20:11.254Z,4.05
2023-03-13T02:20:43.018Z,5.28
2023-03-13T02:21:37.437Z,4.05
2023-03-13T02:22:44.503Z,4.43
2023-03-13T02:23:24.797Z,4.03
2023-03-13T02:24:09.478Z,4.67
2023-03-13T02:25:08.446Z,4.80
2023-03-13T02:25:46.601Z,4.72
2023-03-13T02:26:18.201Z,5.32
2023-03-13T02:26:49.677Z,4.20
2023-03-13T02:27:21.470Z,4.45
2023-03-13T02:28:03.198Z,4.75
2023-03-13T02:28:39.046Z,5.38
2023-03-13T02:29:18.183Z,5.05
2023-03-13T02:29:49.782Z,5.03
2023-03-13T02:30:21.365Z,5.13
2023-03-13T02:30:55.737Z,5.05
2023-03-13T02:31:27.347Z,5.70
2023-03-13T02:31:58.961Z,5.60
2023-03-13T02:32:31.661Z,5.22
2023-03-13T02:33:04.327Z,5.07
2023-03-13T02:33:42.296Z,5.95
2023-03-13T02:34:18.127Z,5.85
2023-03-13T02:34:53.258Z,5.60
2023-03-13T02:35:24.784Z,4.65
2023-03-13T02:35:59.159Z,4.73
2023-03-13T02:36:31.058Z,5.40
2023-03-13T02:37:05.641Z,5.68
2023-03-13T02:37:38.126Z,5.63
2023-03-13T02:38:15.245Z,4.93
2023-03-13T02:39:01.943Z,5.15
2023-03-13T02:39:34.795Z,5.63
2023-03-13T02:40:11.066Z,5.30
2023-03-13T02:40:45.329Z,5.75
2023-03-13T02:41:18.040Z,4.90
2023-03-13T02:41:51.547Z,6.10
2023-03-13T02:42:23.858Z,5.38
2023-03-13T02:42:56.921Z,5.95
2023-03-13T02:43:33.802Z,5.63
2023-03-13T02:44:06.005Z,6.13
2023-03-13T02:44:41.557Z,6.53
2023-03-13T02:45:17.936Z,6.18
2023-03-13T02:46:08.205Z,5.88
2023-03-13T02:46:50.225Z,5.63
2023-03-13T02:47:23.993Z,5.65
2023-03-13T02:47:55.401Z,5.67
2023-03-13T02:48:41.895Z,6.60
2023-03-13T02:49:21.087Z,5.82
2023-03-13T02:49:52.563Z,6.30
2023-03-13T02:50:24.195Z,6.55
2023-03-13T02:50:55.814Z,5.95
2023-03-13T02:51:30.559Z,6.45
2023-03-13T02:52:27.768Z,6.28
2023-03-13T02:53:03.555Z,6.68
2023-03-13T02:53:35.649Z,6.60
2023-03-13T02:54:11.872Z,7.17
2023-03-13T02:54:47.191Z,6.65
2023-03-13T02:55:24.551Z,6.90
2023-03-13T02:55:56.250Z,7.13
2023-03-13T02:56:31.676Z,7.43
2023-03-13T02:57:04.567Z,7.38
2023-03-13T02:57:36.272Z,6.97
2023-03-13T02:58:08.414Z,6.57
2023-03-13T02:58:49.667Z,7.32
2023-03-13T02:59:22.019Z,7.97
2023-03-13T02:59:53.574Z,8.13
2023-03-13T03:00:26.792Z,7.38
2023-03-13T03:01:07.538Z,8.77
2023-03-13T03:01:39.079Z,8.95
2023-03-13T03:02:10.495Z,9.20
2023-03-13T03:02:41.868Z,8.00
2023-03-13T03:03:13.237Z,8.10
2023-03-13T03:03:44.704Z,8.63
2023-03-13T03:04:16.128Z,8.65
2023-03-13T03:04:47.784Z,8.18
2023-03-13T03:05:19.478Z,7.43
2023-03-13T03:05:51.151Z,8.02
2023-03-13T03:06:22.767Z,7.78
2023-03-13T03:06:54.187Z,8.65
2023-03-13T03:07:25.628Z,8.50
2023-03-13T03:07:57.043Z,8.38
2023-03-13T03:08:28.541Z,8.00
2023-03-13T03:08:59.933Z,8.50
2023-03-13T03:09:31.311Z,9.02
2023-03-13T03:10:03.024Z,8.32
2023-03-13T03:10:37.014Z,8.77
2023-03-13T03:11:08.397Z,7.63
2023-03-13T03:11:39.789Z,9.30
2023-03-13T03:12:11.202Z,8.77
2023-03-13T03:12:42.621Z,9.35
2023-03-13T03:13:14.088Z,9.40
2023-03-13T03:13:46.116Z,9.55
2023-03-13T03:14:18.319Z,9.65
2023-03-13T03:14:49.952Z,9.05
2023-03-13T03:15:22.565Z,8.88
2023-03-13T03:15:54.184Z,8.93
2023-03-13T03:16:25.596Z,8.85
2023-03-13T03:16:56.980Z,8.40
2023-03-13T03:17:28.316Z,9.70
2023-03-13T03:17:59.670Z,10.45
2023-03-13T03:18:33.064Z,9.23
2023-03-13T03:19:09.497Z,8.95
2023-03-13T03:19:40.908Z,9.02
2023-03-13T03:20:12.389Z,10.35
2023-03-13T03:20:43.815Z,8.48
2023-03-13T03:21:15.224Z,9.07
2023-03-13T03:21:46.787Z,9.65
2023-03-13T03:22:18.722Z,9.63
2023-03-13T03:22:50.119Z,10.32
2023-03-13T03:23:21.663Z,9.30
2023-03-13T03:23:53.065Z,9.60
2023-03-13T03:24:24.569Z,8.77
2023-03-13T03:24:56.032Z,9.85
2023-03-13T03:25:27.368Z,10.40
2023-03-13T03:25:58.868Z,10.23
2023-03-13T03:26:30.616Z,10.00
2023-03-13T03:27:02.243Z,9.70
2023-03-13T03:27:33.756Z,9.38
2023-03-13T03:28:05.315Z,10.18
2023-03-13T03:28:36.728Z,9.88
2023-03-13T03:29:08.353Z,9.77
2023-03-13T03:29:39.739Z,9.73
2023-03-13T03:30:11.911Z,9.75
2023-03-13T03:30:43.433Z,10.23
2023-03-13T03:31:15.744Z,10.38
2023-03-13T03:31:47.308Z,10.17
2023-03-13T03:32:18.819Z,10.75
2023-03-13T03:32:50.291Z,10.20
2023-03-13T03:33:23.031Z,10.57
2023-03-13T03:33:54.461Z,10.35
2023-03-13T03:34:25.943Z,9.93
2023-03-13T03:34:57.273Z,9.75
2023-03-13T03:35:28.647Z,10.70
2023-03-13T03:36:01.717Z,11.30
2023-03-13T03:36:33.062Z,10.73
2023-03-13T03:37:04.447Z,11.17
2023-03-13T03:37:35.847Z,10.48
2023-03-13T03:38:07.223Z,10.70
2023-03-13T03:38:39.775Z,10.13
2023-03-13T03:39:11.155Z,10.60
2023-03-13T03:39:42.487Z,10.40
2023-03-13T03:40:14.273Z,10.30
2023-03-13T03:40:45.673Z,10.88
2023-03-13T03:41:17.567Z,9.52
2023-03-13T03:41:48.970Z,10.50
2023-03-13T03:42:20.385Z,10.03
2023-03-13T03:42:51.863Z,10.02
2023-03-13T03:43:23.249Z,9.75
2023-03-13T03:43:54.665Z,10.38
2023-03-13T03:44:26.125Z,9.85
2023-03-13T03:44:57.722Z,9.55
2023-03-13T03:45:29.235Z,9.77
2023-03-13T03:46:01.320Z,10.10
2023-03-13T03:46:33.308Z,10.32
2023-03-13T03:47:04.860Z,9.43
2023-03-13T03:47:36.253Z,9.57
2023-03-13T03:48:07.623Z,9.40
2023-03-13T03:48:39.461Z,9.07
2023-03-13T03:49:11.005Z,10.00
2023-03-13T03:49:42.555Z,8.75
2023-03-13T03:50:14.159Z,9.95
2023-03-13T03:50:45.570Z,8.88
2023-03-13T03:51:16.918Z,9.05
2023-03-13T03:51:49.521Z,8.30
2023-03-13T03:52:20.947Z,8.73
2023-03-13T03:52:52.485Z,8.43
2023-03-13T03:53:24.874Z,8.63
2023-03-13T03:53:56.320Z,8.85
2023-03-13T03:54:27.901Z,10.73
2023-03-13T03:54:59.298Z,8.82
2023-03-13T03:55:30.784Z,8.63
2023-03-13T03:56:02.339Z,9.00
2023-03-13T03:56:33.796Z,8.65
2023-03-13T03:57:05.214Z,7.72
2023-03-13T03:57:36.572Z,8.63
2023-03-13T03:58:07.992Z,8.70
2023-03-13T03:58:39.453Z,8.75
2023-03-13T03:59:11.005Z,8.95
2023-03-13T03:59:42.386Z,9.90
2023-03-13T04:00:16.092Z,9.05
2023-03-13T04:00:48.744Z,7.68
2023-03-13T04:01:20.190Z,7.88
2023-03-13T04:01:51.628Z,8.25
2023-03-13T04:02:23.080Z,8.25
2023-03-13T04:02:56.135Z,8.18
2023-03-13T04:03:27.718Z,7.80
2023-03-13T04:03:59.435Z,6.93
2023-03-13T04:04:30.975Z,7.60
2023-03-13T04:05:02.578Z,9.23
2023-03-13T04:05:34.112Z,9.43
2023-03-13T04:06:07.071Z,7.30
2023-03-13T04:06:38.443Z,6.93
2023-03-13T04:07:09.964Z,7.70
2023-03-13T04:07:41.424Z,7.65
2023-03-13T04:08:12.866Z,7.50
2023-03-13T04:08:44.275Z,6.33
2023-03-13T04:09:15.726Z,7.25
2023-03-13T04:09:47.203Z,7.13
2023-03-13T04:10:18.696Z,6.75
2023-03-13T04:10:50.513Z,6.53
2023-03-13T04:11:22.397Z,7.38
2023-03-13T04:11:53.724Z,6.80
2023-03-13T04:12:25.557Z,7.45
2023-03-13T04:12:56.972Z,7.57
2023-03-13T04:13:28.384Z,6.35
2023-03-13T04:13:59.810Z,7.33
2023-03-13T04:14:31.177Z,6.93
2023-03-13T04:15:02.707Z,7.25
2023-03-13T04:15:34.523Z,6.97
2023-03-13T04:16:09.727Z,6.60
2023-03-13T04:16:41.267Z,6.18
2023-03-13T04:17:13.626Z,6.30
2023-03-13T04:17:45.027Z,6.50
2023-03-13T04:18:16.802Z,6.68
2023-03-13T04:18:48.202Z,6.57
2023-03-13T04:19:19.670Z,7.30
2023-03-13T04:19:51.147Z,6.90
2023-03-13T04:20:22.630Z,7.75
2023-03-13T04:21:04.141Z,6.60
2023-03-13T04:21:35.524Z,6.82
2023-03-13T04:22:07.101Z,6.82
2023-03-13T04:22:38.495Z,6.47
2023-03-13T04:23:10.034Z,6.63
2023-03-13T04:23:41.456Z,7.05
2023-03-13T04:24:12.850Z,6.15
2023-03-13T04:24:44.269Z,6.63
2023-03-13T04:25:15.626Z,6.30
2023-03-13T04:25:47.098Z,6.25
2023-03-13T04:26:18.463Z,6.18
2023-03-13T04:26:49.778Z,7.45
2023-03-13T04:27:21.210Z,6.82
2023-03-13T04:27:52.546Z,6.70
2023-03-13T04:28:23.892Z,7.32
2023-03-13T04:28:55.235Z,7.32
2023-03-13T04:29:26.713Z,6.75
2023-03-13T04:29:58.155Z,6.63
2023-03-13T04:30:29.560Z,6.57
2023-03-13T04:31:01.459Z,6.20
2023-03-13T04:31:33.393Z,6.90
2023-03-13T04:32:04.930Z,7.00
2023-03-13T04:32:36.352Z,6.80
2023-03-13T04:33:07.726Z,6.18
2023-03-13T04:33:39.188Z,7.30
2023-03-13T04:34:10.710Z,6.28
2023-03-13T04:34:42.096Z,6.80
2023-03-13T04:35:13.722Z,6.67
2023-03-13T04:35:45.271Z,6.60
2023-03-13T04:36:16.827Z,6.78
2023-03-13T04:36:48.281Z,6.40
2023-03-13T04:37:19.857Z,6.55
2023-03-13T04:37:51.188Z,6.60
2023-03-13T04:38:23.261Z,6.88
2023-03-13T04:38:54.695Z,6.45
2023-03-13T04:39:26.177Z,6.40
2023-03-13T04:39:57.529Z,6.55
2023-03-13T04:40:29.460Z,7.10
2023-03-13T04:41:00.931Z,6.85
2023-03-13T04:41:32.405Z,7.75
2023-03-13T04:42:04.021Z,6.93
2023-03-13T04:42:35.352Z,7.13
2023-03-13T04:43:06.799Z,7.32
2023-03-13T04:43:38.434Z,6.10
2023-03-13T04:44:09.986Z,6.65
2023-03-13T04:44:43.436Z,6.80
2023-03-13T04:45:15.093Z,7.75
2023-03-13T04:45:46.727Z,6.30
2023-03-13T04:46:18.738Z,6.32
2023-03-13T04:46:50.323Z,6.72
2023-03-13T04:47:21.726Z,6.07
2023-03-13T04:47:53.206Z,6.60
2023-03-13T04:48:24.641Z,7.20
2023-03-13T04:48:55.989Z,6.47
2023-03-13T04:49:27.464Z,6.97
2023-03-13T04:49:58.837Z,6.85
2023-03-13T04:50:30.267Z,6.90
2023-03-13T04:51:01.628Z,5.97
2023-03-13T04:51:33.103Z,6.25
2023-03-13T04:52:04.773Z,6.90
2023-03-13T04:52:36.215Z,7.05
2023-03-13T04:53:07.667Z,6.72
2023-03-13T04:53:39.175Z,6.50
2023-03-13T04:54:11.538Z,6.40
2023-03-13T04:54:43.033Z,6.63
2023-03-13T04:55:14.473Z,6.43
2023-03-13T04:55:48.467Z,5.38
2023-03-13T04:56:41.849Z,6.37
2023-03-13T04:57:13.922Z,5.95
2023-03-13T04:57:45.296Z,5.30
2023-03-13T04:58:16.651Z,5.95
2023-03-13T04:58:48.314Z,5.47
2023-03-13T04:59:19.723Z,6.03
2023-03-13T04:59:51.136Z,6.00
2023-03-13T05:00:22.603Z,6.13
2023-03-13T05:00:54.961Z,6.75
2023-03-13T05:01:26.366Z,6.22
2023-03-13T05:01:57.839Z,6.27
2023-03-13T05:02:29.206Z,5.78
2023-03-13T05:03:00.563Z,5.75
2023-03-13T05:03:31.972Z,6.03
2023-03-13T05:04:03.631Z,5.72
2023-03-13T05:04:35.135Z,5.68
2023-03-13T05:05:06.735Z,6.35
2023-03-13T05:05:38.161Z,5.35
2023-03-13T05:06:10.031Z,5.70
2023-03-13T05:06:41.723Z,5.15
2023-03-13T05:07:13.111Z,6.23
2023-03-13T05:07:44.542Z,5.72
2023-03-13T05:08:16.162Z,4.93
2023-03-13T05:08:47.524Z,6.55
2023-03-13T05:09:18.907Z,5.85
2023-03-13T05:09:50.657Z,5.20
2023-03-13T05:10:21.996Z,6.47
2023-03-13T05:10:53.339Z,9.73
2023-03-13T05:11:24.812Z,5.60
2023-03-13T05:11:58.177Z,5.25
2023-03-13T05:12:29.739Z,5.97
2023-03-13T05:13:01.142Z,4.85
2023-03-13T05:13:32.708Z,4.97
2023-03-13T05:14:04.530Z,5.72
2023-03-13T05:14:35.998Z,5.78
2023-03-13T05:15:08.130Z,5.43
2023-03-13T05:15:39.526Z,4.18
2023-03-13T05:16:10.916Z,4.95
2023-03-13T05:16:42.287Z,5.03
2023-03-13T05:17:13.770Z,4.50
2023-03-13T05:17:45.098Z,4.73
2023-03-13T05:18:16.732Z,4.35
2023-03-13T05:18:48.150Z,4.93
2023-03-13T05:19:19.697Z,4.30
2023-03-13T05:19:51.166Z,5.03
2023-03-13T05:20:22.532Z,3.92
2023-03-13T05:20:54.104Z,4.32
2023-03-13T05:21:25.564Z,5.57
2023-03-13T05:21:56.956Z,4.85
2023-03-13T05:22:28.353Z,4.03
2023-03-13T05:22:59.828Z,4.67
2023-03-13T05:23:31.706Z,4.63
2023-03-13T05:24:03.075Z,5.43
2023-03-13T05:24:34.472Z,4.63
2023-03-13T05:25:06.136Z,4.60
2023-03-13T05:25:37.599Z,4.13
2023-03-13T05:26:09.102Z,4.13
2023-03-13T05:26:40.448Z,3.75
2023-03-13T05:27:11.799Z,4.18
2023-03-13T05:27:43.216Z,4.63
2023-03-13T05:28:14.611Z,4.33
2023-03-13T05:28:46.366Z,4.35
2023-03-13T05:29:17.762Z,4.32
2023-03-13T05:29:49.286Z,6.00
2023-03-13T05:30:20.789Z,4.72
2023-03-13T05:30:52.437Z,4.00
2023-03-13T05:31:23.901Z,4.30
2023-03-13T05:31:55.415Z,4.75
2023-03-13T05:32:26.967Z,4.00
2023-03-13T05:32:58.625Z,3.45
2023-03-13T05:33:30.000Z,4.17
2023-03-13T05:34:01.477Z,4.57
2023-03-13T05:34:32.889Z,4.40
2023-03-13T05:35:04.543Z,4.15
2023-03-13T05:35:35.939Z,3.67
2023-03-13T05:36:07.885Z,4.00
2023-03-13T05:36:39.383Z,4.18
2023-03-13T05:37:10.794Z,4.10
2023-03-13T05:37:43.076Z,4.43
2023-03-13T05:38:14.889Z,3.75
2023-03-13T05:38:46.284Z,3.97
2023-03-13T05:39:17.764Z,3.88
2023-03-13T05:39:49.186Z,4.30
2023-03-13T05:40:20.607Z,3.78
2023-03-13T05:40:52.038Z,3.70
2023-03-13T05:41:23.556Z,4.10
2023-03-13T05:41:55.142Z,4.07
2023-03-13T05:42:27.092Z,3.55
2023-03-13T05:42:59.310Z,3.45
2023-03-13T05:43:30.772Z,3.90
2023-03-13T05:44:02.200Z,4.00
2023-03-13T05:44:33.562Z,3.80
2023-03-13T05:45:05.474Z,3.70
2023-03-13T05:45:36.942Z,4.22
2023-03-13T05:46:08.407Z,3.38
2023-03-13T05:46:39.916Z,3.38
2023-03-13T05:47:11.459Z,4.20
2023-03-13T05:47:42.909Z,3.47
2023-03-13T05:48:14.304Z,3.90
2023-03-13T05:48:46.822Z,3.65
2023-03-13T05:49:18.247Z,3.97
2023-03-13T05:49:49.654Z,3.78
2023-03-13T05:50:21.134Z,3.58
2023-03-13T05:50:52.514Z,4.25
2023-03-13T05:51:23.873Z,5.07
2023-03-13T05:51:55.250Z,3.22
2023-03-13T05:52:26.709Z,3.40
2023-03-13T05:52:58.072Z,4.20
2023-03-13T05:53:29.477Z,3.92
2023-03-13T05:54:00.806Z,3.05
2023-03-13T05:54:32.205Z,2.63
2023-03-13T05:55:03.885Z,3.67
2023-03-13T05:55:35.328Z,4.10
2023-03-13T05:56:07.111Z,4.00
2023-03-13T05:56:38.532Z,3.97
2023-03-13T05:57:10.170Z,3.50
2023-03-13T05:57:45.820Z,4.15
2023-03-13T05:58:17.309Z,4.25
2023-03-13T05:58:48.711Z,4.03
2023-03-13T05:59:20.028Z,3.50
2023-03-13T05:59:51.622Z,4.27
2023-03-13T06:00:23.298Z,3.17
2023-03-13T06:00:54.710Z,3.50
2023-03-13T06:01:26.066Z,3.67
2023-03-13T06:01:57.458Z,3.95
2023-03-13T06:02:29.108Z,3.85
2023-03-13T06:03:00.543Z,4.43
2023-03-13T06:03:32.006Z,3.67
2023-03-13T06:04:03.529Z,3.60
2023-03-13T06:04:35.819Z,3.60
2023-03-13T06:05:08.622Z,4.00
2023-03-13T06:05:40.011Z,3.50
2023-03-13T06:06:11.450Z,3.30
2023-03-13T06:06:42.989Z,3.95
2023-03-13T06:07:14.374Z,3.30
2023-03-13T06:07:45.790Z,4.38
2023-03-13T06:08:17.150Z,2.88
2023-03-13T06:08:48.545Z,3.78
2023-03-13T06:09:20.143Z,3.38
2023-03-13T06:09:51.531Z,3.55
2023-03-13T06:10:22.918Z,3.20
2023-03-13T06:10:54.588Z,4.07
2023-03-13T06:11:25.998Z,3.42
2023-03-13T06:11:57.425Z,4.63
2023-03-13T06:12:29.007Z,3.17
2023-03-13T06:13:13.746Z,3.47
2023-03-13T06:13:50.780Z,3.17
2023-03-13T06:14:22.775Z,3.20
2023-03-13T06:14:54.414Z,3.80
2023-03-13T06:15:25.759Z,3.40
2023-03-13T06:15:59.638Z,4.13
2023-03-13T06:16:31.214Z,4.20
2023-03-13T06:17:02.726Z,3.05
2023-03-13T06:17:34.054Z,4.32
2023-03-13T06:18:05.507Z,4.32
2023-03-13T06:18:37.025Z,4.50
2023-03-13T06:19:08.408Z,3.83
2023-03-13T06:19:39.824Z,3.92
2023-03-13T06:20:12.094Z,4.30
2023-03-13T06:20:43.488Z,3.22
2023-03-13T06:21:15.242Z,3.80
2023-03-13T06:21:46.701Z,4.10
2023-03-13T06:22:18.530Z,3.65
2023-03-13T06:22:49.950Z,3.60
2023-03-13T06:23:21.301Z,4.60
2023-03-13T06:23:54.109Z,3.88
2023-03-13T06:24:25.758Z,3.58
2023-03-13T06:24:57.183Z,3.50
2023-03-13T06:25:28.546Z,4.15
2023-03-13T06:26:00.326Z,3.38
2023-03-13T06:26:31.763Z,3.87
2023-03-13T06:27:03.352Z,3.28
2023-03-13T06:27:35.498Z,2.75
2023-03-13T06:28:06.911Z,3.50
2023-03-13T06:28:38.281Z,3.65
2023-03-13T06:29:10.989Z,3.70
2023-03-13T06:29:42.471Z,3.53
2023-03-13T06:30:14.031Z,3.78
2023-03-13T06:30:45.473Z,3.13
2023-03-13T06:31:17.268Z,3.70
2023-03-13T06:31:48.791Z,3.47
2023-03-13T06:32:20.738Z,3.03
2023-03-13T06:32:52.443Z,4.53
2023-03-13T06:33:23.883Z,3.60
2023-03-13T06:33:55.645Z,4.07
2023-03-13T06:34:27.030Z,3.42
2023-03-13T06:34:58.384Z,3.42
2023-03-13T06:35:29.841Z,4.18
2023-03-13T06:36:01.954Z,3.70
2023-03-13T06:36:33.610Z,3.03
2023-03-13T06:37:05.111Z,3.40
2023-03-13T06:37:36.591Z,3.53
2023-03-13T06:38:09.017Z,3.38
2023-03-13T06:38:40.400Z,3.40
2023-03-13T06:39:12.828Z,3.45
2023-03-13T06:39:44.202Z,3.78
2023-03-13T06:40:15.813Z,3.88
2023-03-13T06:40:48.035Z,3.08
2023-03-13T06:41:19.538Z,3.72
2023-03-13T06:41:51.174Z,2.88
2023-03-13T06:42:22.640Z,2.90
2023-03-13T06:42:54.136Z,3.17
2023-03-13T06:43:25.631Z,3.30
2023-03-13T06:43:57.152Z,3.00
2023-03-13T06:44:28.567Z,2.88
2023-03-13T06:45:00.086Z,3.53
2023-03-13T06:45:31.692Z,3.60
2023-03-13T06:46:05.240Z,4.25
2023-03-13T06:46:36.953Z,3.30
2023-03-13T06:47:08.539Z,3.53
2023-03-13T06:47:40.011Z,3.27
2023-03-13T06:48:11.530Z,3.60
2023-03-13T06:48:44.256Z,3.80
2023-03-13T06:49:15.804Z,3.72
2023-03-13T06:49:47.345Z,3.67
2023-03-13T06:50:18.926Z,3.15
2023-03-13T06:50:50.512Z,3.72
2023-03-13T06:51:22.612Z,2.92
2023-03-13T06:51:56.911Z,3.55
2023-03-13T06:52:37.743Z,2.75
2023-03-13T06:53:19.518Z,3.40
2023-03-13T06:53:52.403Z,3.35
2023-03-13T06:54:23.897Z,3.63
2023-03-13T06:54:55.341Z,3.55
2023-03-13T06:55:26.742Z,3.97
2023-03-13T06:56:00.925Z,3.35
2023-03-13T06:56:32.399Z,3.80
2023-03-13T06:57:03.892Z,3.33
2023-03-13T06:57:35.284Z,3.25
2023-03-13T06:58:06.709Z,3.45
2023-03-13T06:58:38.199Z,3.10
2023-03-13T06:59:10.499Z,3.20
2023-03-13T06:59:42.019Z,3.83
2023-03-13T07:00:14.008Z,3.50
2023-03-13T07:00:46.542Z,3.75
2023-03-13T07:01:18.899Z,2.95
2023-03-13T07:01:50.433Z,3.45
2023-03-13T07:02:22.017Z,3.15
2023-03-13T07:02:54.061Z,3.45
2023-03-13T07:03:25.611Z,3.58
2023-03-13T07:03:57.198Z,2.73
2023-03-13T07:04:28.629Z,2.92
2023-03-13T07:05:00.047Z,3.28
2023-03-13T07:05:31.820Z,3.35
2023-03-13T07:06:05.688Z,3.50
2023-03-13T07:06:37.164Z,3.38
2023-03-13T07:07:11.590Z,3.50
2023-03-13T07:07:46.430Z,4.20
2023-03-13T07:08:17.836Z,3.50
2023-03-13T07:08:50.002Z,3.35
2023-03-13T07:09:21.640Z,3.60
2023-03-13T07:09:53.031Z,3.45
2023-03-13T07:10:25.184Z,3.10
2023-03-13T07:11:01.723Z,3.80
2023-03-13T07:11:33.306Z,3.17
2023-03-13T07:12:05.486Z,3.13
2023-03-13T07:12:37.718Z,3.17
2023-03-13T07:13:09.409Z,3.50
2023-03-13T07:13:51.510Z,3.75
2023-03-13T07:14:27.520Z,2.92
2023-03-13T07:15:10.451Z,4.60
2023-03-13T07:15:41.879Z,4.47